Time;durP1;ratioP1;P1;durP2;ratioP2;P2;SDS_P1;SDS_P2;PMS_P1;PMS_P2;Temp;Humidity;BMP_temperature;BMP_pressure;BME280_temperature;BME280_humidity;BME280_pressure;Samples;Min_cycle;Max_cycle;Signal;HPM_P1;HPM_P2
2023/07/14 00:00:39;;;;;;;;;;;;;;;15.39;100.00;101782.94;5061760;28;19925;-48
2023/07/14 00:03:05;;;;;;;;;;;;;;;15.39;100.00;101787.25;5056915;28;19941;-46
2023/07/14 00:05:32;;;;;;;;;;;;;;;15.37;100.00;101776.88;5059594;28;20003;-49
2023/07/14 00:07:58;;;;;;;;;;;;;;;15.38;100.00;101773.41;5042106;28;19925;-47
2023/07/14 00:10:31;;;;;;;;;;;;;;;15.41;100.00;101776.09;5060454;28;19921;-50
2023/07/14 00:13:02;;;;;;;;;;;;;;;15.42;100.00;101770.06;5059875;28;19921;-52
2023/07/14 00:15:31;;;;;;;;;;;;;;;15.44;100.00;101773.56;5061696;28;20069;-47
2023/07/14 00:18:12;;;;;;;;;;;;;;;15.45;100.00;101766.66;5058900;28;19924;-47
2023/07/14 00:20:38;;;;;;;;;;;;;;;15.45;100.00;101772.72;5062518;28;20003;-47
2023/07/14 00:23:11;;;;;;;;;;;;;;;15.44;100.00;101772.69;5036186;28;20458;-48
2023/07/14 00:25:36;;;;;;;;;;;;;;;15.41;100.00;101763.13;5052475;28;19917;-49
2023/07/14 00:28:03;;;;;;;;;;;;;;;15.40;100.00;101761.38;5053975;28;19932;-49
2023/07/14 00:30:28;;;;;;;;;;;;;;;15.40;100.00;101766.53;5053845;28;19921;-46
2023/07/14 00:32:55;;;;;;;;;;;;;;;15.40;100.00;101766.53;5060016;28;19935;-49
2023/07/14 00:35:27;;;;;;;;;;;;;;;15.40;100.00;101769.13;5058257;28;20013;-46
2023/07/14 00:37:54;;;;;;;;;;;;;;;15.37;100.00;101763.91;5058240;28;19916;-46
2023/07/14 00:40:40;;;;;;;;;;;;;;;15.36;100.00;101759.56;5058950;28;20302;-46
2023/07/14 00:43:12;;;;;;;;;;;;;;;15.35;100.00;101755.22;5061808;28;19920;-46
2023/07/14 00:45:38;;;;;;;;;;;;;;;15.35;100.00;101763.00;5062664;28;19923;-46
2023/07/14 00:48:04;;;;;;;;;;;;;;;15.37;100.00;101752.66;5061401;28;19917;-46
2023/07/14 00:50:47;;;;;;;;;;;;;;;15.37;100.00;101750.06;5060514;27;20864;-44
2023/07/14 00:53:18;;;;;;;;;;;;;;;15.38;100.00;101742.31;5063184;28;19990;-45
2023/07/14 00:55:48;;;;;;;;;;;;;;;15.40;100.00;101748.41;5058014;28;20421;-45
2023/07/14 00:58:20;;;;;;;;;;;;;;;15.42;100.00;101748.47;5059303;28;20006;-45
2023/07/14 01:00:59;;;;;;;;;;;;;;;15.43;100.00;101750.22;5069450;28;19920;-48
2023/07/14 01:03:24;;;;;;;;;;;;;;;15.43;100.00;101748.50;5062701;28;19931;-48
2023/07/14 01:05:50;;;;;;;;;;;;;;;15.44;100.00;101749.38;5061514;28;19928;-47
2023/07/14 01:08:15;;;;;;;;;;;;;;;15.45;100.00;101749.38;5067383;28;19921;-48
2023/07/14 01:10:40;;;;;;;;;;;;;;;15.46;100.00;101751.13;5060995;28;19924;-49
2023/07/14 01:13:07;;;;;;;;;;;;;;;15.46;100.00;101752.84;5064049;27;19924;-48
2023/07/14 01:15:35;;;;;;;;;;;;;;;15.45;100.00;101751.97;5061356;27;19968;-48
2023/07/14 01:18:00;;;;;;;;;;;;;;;15.46;100.00;101753.72;5057966;28;19982;-48
2023/07/14 01:20:26;;;;;;;;;;;;;;;15.47;100.00;101750.31;5061777;28;20364;-48
2023/07/14 01:23:01;;;;;;;;;;;;;;;15.47;100.00;101747.72;5038719;28;19930;-49
2023/07/14 01:25:35;;;;;;;;;;;;;;;15.47;100.00;101742.53;5061744;28;19969;-48
2023/07/14 01:28:05;;;;;;;;;;;;;;;15.49;100.00;101740.84;5052330;28;19927;-49
2023/07/14 01:30:32;;;;;;;;;;;;;;;15.48;100.00;101733.91;5058853;28;19928;-47
2023/07/14 01:32:58;;;;;;;;;;;;;;;15.48;100.00;101723.56;5055652;28;19931;-48
2023/07/14 01:35:28;;;;;;;;;;;;;;;15.48;100.00;101726.16;5075802;27;20002;-50
2023/07/14 01:37:54;;;;;;;;;;;;;;;15.49;100.00;101727.00;5054040;28;19924;-51
2023/07/14 01:40:21;;;;;;;;;;;;;;;15.45;100.00;101728.66;5056887;28;19921;-49
2023/07/14 01:42:55;;;;;;;;;;;;;;;15.45;100.00;101732.97;5057565;28;19955;-47
2023/07/14 01:45:22;;;;;;;;;;;;;;;15.42;100.00;101717.38;5065117;28;19943;-48
2023/07/14 01:47:50;;;;;;;;;;;;;;;15.42;100.00;101719.97;5058249;28;19919;-48
2023/07/14 01:50:22;;;;;;;;;;;;;;;15.43;100.00;101737.25;5060328;28;19999;-48
2023/07/14 01:52:50;;;;;;;;;;;;;;;15.40;100.00;101727.66;5062188;28;19965;-47
2023/07/14 01:55:18;;;;;;;;;;;;;;;15.41;100.00;101726.84;5060742;28;19924;-48
2023/07/14 01:57:46;;;;;;;;;;;;;;;15.40;100.00;101722.50;5064129;28;19921;-47
2023/07/14 02:00:12;;;;;;;;;;;;;;;15.39;100.00;101723.34;5059197;28;20030;-50
2023/07/14 02:02:38;;;;;;;;;;;;;;;15.40;100.00;101721.63;5059259;28;19929;-49
2023/07/14 02:05:15;;;;;;;;;;;;;;;15.40;100.00;101724.22;5059348;27;20335;-50
2023/07/14 02:07:40;;;;;;;;;;;;;;;15.40;100.00;101717.31;5054496;28;19917;-48
2023/07/14 02:10:12;;;;;;;;;;;;;;;15.41;100.00;101716.50;5057094;28;19916;-50
2023/07/14 02:12:39;;;;;;;;;;;;;;;15.44;100.00;101719.13;5062824;28;19917;-48
2023/07/14 02:15:06;;;;;;;;;;;;;;;15.43;100.00;101713.94;5052938;28;19990;-47
2023/07/14 02:17:33;;;;;;;;;;;;;;;15.43;100.00;101717.38;5055940;28;20486;-47
2023/07/14 02:20:00;;;;;;;;;;;;;;;15.42;100.00;101713.06;5058742;28;19921;-48
2023/07/14 02:22:25;;;;;;;;;;;;;;;15.41;100.00;101708.72;5060393;28;19925;-50
2023/07/14 02:24:52;;;;;;;;;;;;;;;15.39;100.00;101712.97;5056959;28;19920;-47
2023/07/14 02:27:17;;;;;;;;;;;;;;;15.36;100.00;101702.56;5057948;28;19929;-48
2023/07/14 02:29:43;;;;;;;;;;;;;;;15.31;100.00;101714.53;5057408;28;20294;-50
2023/07/14 02:32:26;;;;;;;;;;;;;;;15.27;100.00;101708.38;5051788;28;19929;-48
2023/07/14 02:34:53;;;;;;;;;;;;;;;15.24;100.00;101710.06;5057425;28;19977;-49
2023/07/14 02:37:51;;;;;;;;;;;;;;;15.19;100.00;101706.47;5057476;28;20666;-50
2023/07/14 02:40:17;;;;;;;;;;;;;;;15.12;100.00;101709.78;5058990;28;19954;-48
2023/07/14 02:42:42;;;;;;;;;;;;;;;15.07;100.00;101708.78;5055355;28;19923;-47
2023/07/14 02:45:08;;;;;;;;;;;;;;;15.00;100.00;101706.06;5054402;28;19917;-49
2023/07/14 02:47:36;;;;;;;;;;;;;;;14.94;100.00;101710.22;5059554;28;20359;-50
2023/07/14 02:50:02;;;;;;;;;;;;;;;14.89;100.00;101709.25;5057934;28;19916;-52
2023/07/14 02:52:27;;;;;;;;;;;;;;;14.83;100.00;101707.38;5054651;28;19927;-51
2023/07/14 02:54:52;;;;;;;;;;;;;;;14.79;100.00;101712.44;5037169;28;20368;-52
2023/07/14 02:57:17;;;;;;;;;;;;;;;14.72;100.00;101709.69;5059894;28;20007;-48
2023/07/14 02:59:43;;;;;;;;;;;;;;;14.65;100.00;101710.38;5064069;27;19925;-48
2023/07/14 03:02:08;;;;;;;;;;;;;;;14.59;100.00;101705.06;5062119;27;20802;-49
2023/07/14 03:04:34;;;;;;;;;;;;;;;14.55;100.00;101703.22;5066583;28;19978;-47
2023/07/14 03:07:00;;;;;;;;;;;;;;;14.53;100.00;101704.03;5064203;28;20014;-48
2023/07/14 03:09:25;;;;;;;;;;;;;;;14.53;100.00;101710.06;5068196;28;20384;-52
2023/07/14 03:11:50;;;;;;;;;;;;;;;14.52;100.00;101704.88;5059303;28;20382;-50
2023/07/14 03:14:16;;;;;;;;;;;;;;;14.51;100.00;101701.41;5053921;27;20267;-52
2023/07/14 03:16:41;;;;;;;;;;;;;;;14.50;100.00;101702.25;5060076;28;20008;-51
2023/07/14 03:19:06;;;;;;;;;;;;;;;14.49;100.00;101692.72;5062425;28;19921;-51
2023/07/14 03:21:31;;;;;;;;;;;;;;;14.52;100.00;101700.56;5062107;28;19972;-52
2023/07/14 03:23:58;;;;;;;;;;;;;;;14.56;100.00;101701.50;5061351;28;19967;-51
2023/07/14 03:26:23;;;;;;;;;;;;;;;14.56;100.00;101698.91;5064031;28;19972;-52
2023/07/14 03:28:49;;;;;;;;;;;;;;;14.56;100.00;101696.31;5058699;28;20302;-51
2023/07/14 03:31:14;;;;;;;;;;;;;;;14.57;100.00;101690.34;5038153;28;19931;-52
2023/07/14 03:33:39;;;;;;;;;;;;;;;14.58;100.00;101692.09;5059776;28;19924;-52
2023/07/14 03:36:06;;;;;;;;;;;;;;;14.61;100.00;101686.97;5057319;28;20342;-50
2023/07/14 03:38:38;;;;;;;;;;;;;;;14.62;100.00;101691.31;5059465;28;19937;-51
2023/07/14 03:41:03;;;;;;;;;;;;;;;14.62;100.00;101681.84;5056497;28;20393;-50
2023/07/14 03:43:28;;;;;;;;;;;;;;;14.63;100.00;101680.13;5061656;28;19929;-49
2023/07/14 03:45:56;;;;;;;;;;;;;;;14.65;100.00;101681.03;5059177;27;19927;-49
2023/07/14 03:48:22;;;;;;;;;;;;;;;14.65;100.00;101674.16;5062782;28;19999;-50
2023/07/14 03:50:47;;;;;;;;;;;;;;;14.66;100.00;101677.59;5062712;28;19916;-48
2023/07/14 03:53:13;;;;;;;;;;;;;;;14.69;100.00;101680.28;5058786;28;19977;-48
2023/07/14 03:55:38;;;;;;;;;;;;;;;14.68;100.00;101673.34;5064509;28;19925;-52
2023/07/14 03:58:04;;;;;;;;;;;;;;;14.68;100.00;101678.50;5056127;28;19920;-51
2023/07/14 04:00:31;;;;;;;;;;;;;;;14.69;100.00;101670.81;5059162;27;19928;-51
2023/07/14 04:02:56;;;;;;;;;;;;;;;14.68;100.00;101665.56;5066044;27;19921;-52
2023/07/14 04:05:21;;;;;;;;;;;;;;;14.70;100.00;101672.56;5060244;28;20426;-51
2023/07/14 04:07:46;;;;;;;;;;;;;;;14.72;100.00;101672.56;5061199;28;19924;-51
2023/07/14 04:10:12;;;;;;;;;;;;;;;14.74;100.00;101681.25;5056277;28;19916;-51
2023/07/14 04:12:38;;;;;;;;;;;;;;;14.73;100.00;101667.44;5060324;28;20294;-51
2023/07/14 04:15:03;;;;;;;;;;;;;;;14.77;100.00;101673.56;5058528;28;20408;-51
2023/07/14 04:17:29;;;;;;;;;;;;;;;14.80;100.00;101677.94;5055473;27;20255;-50
2023/07/14 04:19:54;;;;;;;;;;;;;;;14.82;100.00;101671.97;5058377;28;20382;-50
2023/07/14 04:22:20;;;;;;;;;;;;;;;14.85;100.00;101674.63;5064748;28;19921;-48
2023/07/14 04:24:45;;;;;;;;;;;;;;;14.88;100.00;101672.13;5056647;28;20287;-48
2023/07/14 04:27:12;;;;;;;;;;;;;;;14.90;100.00;101665.25;5059300;28;20053;-48
2023/07/14 04:29:38;;;;;;;;;;;;;;;14.92;100.00;101666.13;5036377;28;19925;-47
2023/07/14 04:32:03;;;;;;;;;;;;;;;14.95;100.00;101661.06;5057029;28;19960;-47
2023/07/14 04:34:29;;;;;;;;;;;;;;;15.00;100.00;101662.03;5057156;28;19927;-46
2023/07/14 04:36:54;;;;;;;;;;;;;;;15.07;100.00;101663.03;5062828;28;20306;-47
2023/07/14 04:39:19;;;;;;;;;;;;;;;15.26;100.00;101664.31;5057817;27;20003;-50
2023/07/14 04:41:45;;;;;;;;;;;;;;;15.32;100.00;101656.69;5057046;28;19920;-49
2023/07/14 04:44:14;;;;;;;;;;;;;;;15.39;100.00;101661.13;5054017;27;19912;-46
2023/07/14 04:46:40;;;;;;;;;;;;;;;15.50;100.00;101664.84;5062369;28;19920;-49
2023/07/14 04:49:06;;;;;;;;;;;;;;;15.60;100.00;101667.63;5063215;28;20301;-47
2023/07/14 04:51:32;;;;;;;;;;;;;;;15.78;100.00;101663.72;5064854;28;19958;-47
2023/07/14 04:53:57;;;;;;;;;;;;;;;15.84;100.00;101662.09;5062738;28;19917;-49
2023/07/14 04:56:22;;;;;;;;;;;;;;;15.88;100.00;101666.47;5055742;28;19931;-49
2023/07/14 04:58:47;;;;;;;;;;;;;;;16.02;100.00;101665.91;5062683;28;20027;-48
2023/07/14 05:01:13;;;;;;;;;;;;;;;16.09;100.00;101666.88;5059156;28;20430;-49
2023/07/14 05:03:38;;;;;;;;;;;;;;;16.08;100.00;101671.19;5043254;28;19958;-49
2023/07/14 05:06:03;;;;;;;;;;;;;;;16.04;100.00;101679.75;5061570;28;19921;-48
2023/07/14 05:08:29;;;;;;;;;;;;;;;15.99;100.00;101664.97;5060498;28;19982;-49
2023/07/14 05:10:54;;;;;;;;;;;;;;;15.91;100.00;101670.00;5060843;28;19917;-48
2023/07/14 05:13:19;;;;;;;;;;;;;;;15.85;100.00;101666.44;5077050;27;19948;-47
2023/07/14 05:15:45;;;;;;;;;;;;;;;15.81;99.55;101660.28;5063587;27;20370;-49
2023/07/14 05:18:10;;;;;;;;;;;;;;;15.75;100.00;101665.34;5055367;28;20332;-47
2023/07/14 05:20:36;;;;;;;;;;;;;;;15.78;100.00;101666.31;5059781;28;19964;-48
2023/07/14 05:23:02;;;;;;;;;;;;;;;15.82;100.00;101662.91;5058662;27;19928;-50
2023/07/14 05:25:27;;;;;;;;;;;;;;;15.92;100.00;101653.59;5063767;27;19916;-47
2023/07/14 05:27:52;;;;;;;;;;;;;;;16.08;100.00;101653.03;5063220;27;20419;-46
2023/07/14 05:30:18;;;;;;;;;;;;;;;16.21;98.89;101663.63;5058948;28;20060;-48
2023/07/14 05:32:44;;;;;;;;;;;;;;;16.45;98.02;101658.88;5065740;28;19920;-49
2023/07/14 05:35:11;;;;;;;;;;;;;;;16.72;97.14;101665.38;5045369;28;20039;-46
2023/07/14 05:37:36;;;;;;;;;;;;;;;16.78;94.87;101670.66;5060308;28;19920;-50
2023/07/14 05:40:05;;;;;;;;;;;;;;;16.68;94.94;101671.31;5067839;28;19943;-50
2023/07/14 05:42:31;;;;;;;;;;;;;;;16.58;95.27;101667.72;5069277;28;19912;-49
2023/07/14 05:44:56;;;;;;;;;;;;;;;16.57;94.84;101660.78;5062395;27;19912;-46
2023/07/14 05:47:24;;;;;;;;;;;;;;;16.51;95.43;101660.69;5062332;28;20290;-47
2023/07/14 05:49:50;;;;;;;;;;;;;;;16.57;95.80;101656.47;5064196;27;19936;-50
2023/07/14 05:52:15;;;;;;;;;;;;;;;17.06;94.67;101664.16;5062017;28;19920;-49
2023/07/14 05:54:40;;;;;;;;;;;;;;;17.49;93.37;101665.59;5064151;27;20678;-47
2023/07/14 05:57:06;;;;;;;;;;;;;;;17.74;90.38;101658.13;5064464;28;19917;-45
2023/07/14 05:59:31;;;;;;;;;;;;;;;17.70;89.14;101664.97;5060992;28;19920;-49
2023/07/14 06:01:56;;;;;;;;;;;;;;;17.68;89.75;101666.69;5062875;28;19925;-48
2023/07/14 06:04:21;;;;;;;;;;;;;;;17.79;89.01;101662.53;5063741;28;20012;-49
2023/07/14 06:06:47;;;;;;;;;;;;;;;18.02;89.37;101665.38;5060375;28;19927;-48
2023/07/14 06:09:13;;;;;;;;;;;;;;;18.07;88.90;101662.78;5057951;28;19924;-49
2023/07/14 06:11:38;;;;;;;;;;;;;;;18.00;87.96;101667.06;5065343;28;19916;-47
2023/07/14 06:14:04;;;;;;;;;;;;;;;17.89;87.99;101663.47;5064907;28;19925;-47
2023/07/14 06:16:30;;;;;;;;;;;;;;;17.75;87.62;101668.53;5065962;28;19952;-47
2023/07/14 06:18:55;;;;;;;;;;;;;;;17.58;88.47;101664.81;5066297;28;20006;-48
2023/07/14 06:21:20;;;;;;;;;;;;;;;17.32;88.78;101667.97;5056751;28;20035;-48
2023/07/14 06:23:45;;;;;;;;;;;;;;;17.21;88.49;101660.88;5046826;27;20045;-50
2023/07/14 06:26:11;;;;;;;;;;;;;;;17.10;88.40;101661.59;5062828;28;20024;-50
2023/07/14 06:28:36;;;;;;;;;;;;;;;17.02;89.58;101660.63;5066389;28;20362;-46
2023/07/14 06:31:04;;;;;;;;;;;;;;;17.03;89.73;101651.97;5066529;28;19958;-50
2023/07/14 06:33:29;;;;;;;;;;;;;;;17.24;90.23;101654.03;5063976;28;20604;-50
2023/07/14 06:35:57;;;;;;;;;;;;;;;17.55;88.93;101657.00;5061078;28;20007;-45
2023/07/14 06:38:23;;;;;;;;;;;;;;;17.76;86.92;101656.41;5059529;27;19924;-50
2023/07/14 06:40:58;;;;;;;;;;;;;;;17.69;86.70;101652.81;5060178;28;20012;-47
2023/07/14 06:43:24;;;;;;;;;;;;;;;17.68;85.50;101664.97;5060947;28;19956;-46
2023/07/14 06:45:50;;;;;;;;;;;;;;;17.57;85.84;101647.47;5064883;28;19951;-49
2023/07/14 06:48:15;;;;;;;;;;;;;;;17.58;87.57;101646.63;5061803;28;19984;-59
2023/07/14 06:50:40;;;;;;;;;;;;;;;17.78;85.86;101652.09;5060099;28;19921;-50
2023/07/14 06:53:06;;;;;;;;;;;;;;;18.04;85.31;101649.78;5061176;28;19921;-49
2023/07/14 06:55:31;;;;;;;;;;;;;;;18.41;84.89;101645.75;5055473;28;19952;-51
2023/07/14 06:57:56;;;;;;;;;;;;;;;18.61;83.64;101644.19;5056885;28;20019;-50
2023/07/14 07:00:22;;;;;;;;;;;;;;;18.74;82.36;101646.03;5062588;28;19924;-50
2023/07/14 07:02:47;;;;;;;;;;;;;;;18.80;81.63;101641.72;5064233;28;20420;-51
2023/07/14 07:05:12;;;;;;;;;;;;;;;18.93;80.66;101640.97;5065229;27;19955;-47
2023/07/14 07:07:37;;;;;;;;;;;;;;;19.18;79.93;101639.38;5054472;28;19980;-48
2023/07/14 07:10:03;;;;;;;;;;;;;;;19.47;81.92;101632.50;5056823;28;19921;-47
2023/07/14 07:12:29;;;;;;;;;;;;;;;19.74;77.05;101634.38;5054354;28;19920;-47
2023/07/14 07:14:54;;;;;;;;;;;;;;;19.88;77.05;101630.94;5056969;28;19939;-49
2023/07/14 07:17:19;;;;;;;;;;;;;;;19.94;76.31;101639.63;5037108;28;19925;-49
2023/07/14 07:19:45;;;;;;;;;;;;;;;19.86;76.79;101630.06;5060801;27;20425;-48
2023/07/14 07:22:10;;;;;;;;;;;;;;;19.81;75.17;101633.53;5059811;28;20293;-51
2023/07/14 07:24:35;;;;;;;;;;;;;;;19.83;75.06;101628.31;5055606;28;19929;-50
2023/07/14 07:27:01;;;;;;;;;;;;;;;19.73;71.54;101623.97;5057924;28;19925;-51
2023/07/14 07:29:26;;;;;;;;;;;;;;;19.46;71.74;101627.31;5059505;28;19932;-47
2023/07/14 07:31:52;;;;;;;;;;;;;;;19.39;76.91;101615.09;5064771;27;19928;-47
2023/07/14 07:34:17;;;;;;;;;;;;;;;19.64;77.19;101624.78;5055812;27;19952;-48
2023/07/14 07:36:42;;;;;;;;;;;;;;;19.93;74.44;101626.59;5064985;28;19920;-46
2023/07/14 07:39:07;;;;;;;;;;;;;;;20.14;72.18;101628.34;5061085;27;19920;-48
2023/07/14 07:41:33;;;;;;;;;;;;;;;20.20;73.04;101625.75;5059654;28;20437;-47
2023/07/14 07:43:58;;;;;;;;;;;;;;;20.15;73.39;101617.06;5056495;28;19921;-49
2023/07/14 07:46:25;;;;;;;;;;;;;;;20.39;71.37;101619.69;5054461;28;20302;-49
2023/07/14 07:48:50;;;;;;;;;;;;;;;20.81;72.85;101608.31;5053192;28;19904;-46
2023/07/14 07:51:16;;;;;;;;;;;;;;;21.21;70.68;101607.31;5057747;28;19917;-48
2023/07/14 07:53:41;;;;;;;;;;;;;;;21.33;68.18;101607.28;5058775;27;19917;-48
2023/07/14 07:56:06;;;;;;;;;;;;;;;21.35;71.10;101603.78;5057110;28;19924;-48
2023/07/14 07:58:32;;;;;;;;;;;;;;;21.24;70.16;101602.97;5061681;28;19920;-51
2023/07/14 08:00:59;;;;;;;;;;;;;;;21.15;71.87;101608.22;5056761;27;19920;-47
2023/07/14 08:03:24;;;;;;;;;;;;;;;20.93;67.67;101603.91;5060836;28;19954;-47
2023/07/14 08:05:50;;;;;;;;;;;;;;;20.68;67.15;101603.09;5059250;28;19985;-49
2023/07/14 08:08:15;;;;;;;;;;;;;;;20.49;71.46;101599.66;5059355;28;20354;-49
2023/07/14 08:10:42;;;;;;;;;;;;;;;20.45;70.80;101598.81;5053473;28;20406;-48
2023/07/14 08:13:08;;;;;;;;;;;;;;;20.53;69.77;101602.28;5057745;28;19912;-48
2023/07/14 08:15:33;;;;;;;;;;;;;;;20.73;67.76;101599.63;5061943;28;19921;-49
2023/07/14 08:17:58;;;;;;;;;;;;;;;20.71;66.36;101593.53;5063271;28;20259;-48
2023/07/14 08:20:24;;;;;;;;;;;;;;;20.70;67.87;101602.25;5064517;28;19921;-50
2023/07/14 08:22:49;;;;;;;;;;;;;;;20.73;67.81;101598.75;5059371;28;20023;-49
2023/07/14 08:25:14;;;;;;;;;;;;;;;20.74;65.50;101593.50;5059423;28;19924;-51
2023/07/14 08:27:39;;;;;;;;;;;;;;;20.70;65.52;101601.38;5062687;28;20435;-47
2023/07/14 08:30:06;;;;;;;;;;;;;;;20.70;69.86;101599.63;5061044;27;20009;-47
2023/07/14 08:32:33;;;;;;;;;;;;;;;20.79;68.05;101603.97;5065588;28;19923;-47
2023/07/14 08:34:58;;;;;;;;;;;;;;;20.80;67.12;101601.34;5064211;28;20302;-48
2023/07/14 08:37:23;;;;;;;;;;;;;;;20.86;68.40;101603.94;5060970;27;19965;-50
2023/07/14 08:39:48;;;;;;;;;;;;;;;20.82;63.70;101596.13;5064946;28;20259;-49
2023/07/14 08:42:31;;;;;;;;;;;;;;;20.76;66.03;101607.47;5061864;27;19924;-49
2023/07/14 08:45:24;;;;;;;;;;;;;;;20.74;66.13;101603.97;5059856;28;19916;-50
2023/07/14 08:47:58;;;;;;;;;;;;;;;20.83;65.60;101596.13;5062734;28;19966;-49
2023/07/14 08:50:25;;;;;;;;;;;;;;;20.97;64.62;101597.81;5063560;28;19916;-47
2023/07/14 08:52:51;;;;;;;;;;;;;;;21.07;64.96;101595.16;5057862;28;19913;-50
2023/07/14 08:55:38;;;;;;;;;;;;;;;21.24;63.78;101583.78;5058595;28;19925;-51
2023/07/14 08:58:05;;;;;;;;;;;;;;;21.47;62.70;101587.16;5063079;28;19995;-47
2023/07/14 09:00:38;;;;;;;;;;;;;;;21.67;63.09;101573.97;5063387;28;19936;-50
2023/07/14 09:03:06;;;;;;;;;;;;;;;21.95;60.04;101580.75;5060223;28;20528;-50
2023/07/14 09:05:34;;;;;;;;;;;;;;;22.26;60.36;101574.41;5059221;27;20028;-49
2023/07/14 09:07:59;;;;;;;;;;;;;;;22.45;58.95;101576.88;5068679;28;19931;-50
2023/07/14 09:10:34;;;;;;;;;;;;;;;22.57;61.30;101569.75;5064969;27;20054;-49
2023/07/14 09:13:25;;;;;;;;;;;;;;;22.48;58.69;101566.34;5061083;28;19920;-48
2023/07/14 09:15:51;;;;;;;;;;;;;;;22.34;59.92;101575.22;5053038;28;20306;-50
2023/07/14 09:18:16;;;;;;;;;;;;;;;22.51;57.86;101564.56;5075024;27;19916;-51
2023/07/14 09:20:59;;;;;;;;;;;;;;;22.53;56.53;101571.53;5066657;28;20348;-49
2023/07/14 09:23:40;;;;;;;;;;;;;;;22.36;59.55;101562.97;5069821;28;19913;-51
2023/07/14 09:26:24;;;;;;;;;;;;;;;22.63;57.08;101567.94;5068792;27;19912;-50
2023/07/14 09:28:50;;;;;;;;;;;;;;;23.09;60.30;101569.19;5059835;28;20001;-49
2023/07/14 09:31:37;;;;;;;;;;;;;;;23.18;54.02;101559.47;5063488;28;19965;-50
2023/07/14 09:34:04;;;;;;;;;;;;;;;23.25;56.76;101558.50;5062188;28;19919;-53
2023/07/14 09:36:31;;;;;;;;;;;;;;;23.19;59.22;101555.94;5063757;28;19928;-52
2023/07/14 09:39:02;;;;;;;;;;;;;;;23.28;56.04;101549.69;5045635;28;19939;-54
2023/07/14 09:41:30;;;;;;;;;;;;;;;23.37;54.10;101544.34;5066391;28;19942;-52
2023/07/14 09:43:57;;;;;;;;;;;;;;;23.42;56.38;101541.63;5068150;27;20025;-54
2023/07/14 09:46:23;;;;;;;;;;;;;;;23.49;54.41;101543.28;5063169;28;20012;-53
2023/07/14 09:48:50;;;;;;;;;;;;;;;23.55;55.14;101538.81;5059655;27;20090;-54
2023/07/14 09:51:17;;;;;;;;;;;;;;;23.65;54.44;101543.94;5067577;28;19961;-53
2023/07/14 09:54:04;;;;;;;;;;;;;;;23.71;53.61;101533.34;5062828;28;19992;-54
2023/07/14 09:56:37;;;;;;;;;;;;;;;23.73;55.55;101534.22;5062644;28;19923;-56
2023/07/14 09:59:07;;;;;;;;;;;;;;;23.84;55.31;101527.00;5061222;28;19917;-56
2023/07/14 10:01:33;;;;;;;;;;;;;;;23.96;55.61;101526.81;5066465;28;19992;-54
2023/07/14 10:04:14;;;;;;;;;;;;;;;24.07;54.84;101526.63;5047349;28;19960;-55
2023/07/14 10:06:41;;;;;;;;;;;;;;;24.30;54.42;101521.81;5067308;28;19928;-54
2023/07/14 10:09:08;;;;;;;;;;;;;;;24.35;52.07;101511.28;5066303;28;20366;-54
2023/07/14 10:11:37;;;;;;;;;;;;;;;24.27;52.82;101508.75;5068944;28;19913;-55
2023/07/14 10:14:15;;;;;;;;;;;;;;;24.25;55.17;101509.66;5061763;28;19921;-54
2023/07/14 10:16:42;;;;;;;;;;;;;;;24.31;53.65;101507.78;5062135;28;19920;-55
2023/07/14 10:19:14;;;;;;;;;;;;;;;24.49;54.78;101505.75;5062668;28;19923;-53
2023/07/14 10:21:48;;;;;;;;;;;;;;;24.61;52.52;101495.84;5067476;28;19919;-52
2023/07/14 10:24:15;;;;;;;;;;;;;;;24.54;51.03;101490.75;5065985;28;19999;-55
2023/07/14 10:26:42;;;;;;;;;;;;;;;24.40;55.68;101491.03;5067810;28;20295;-54
2023/07/14 10:29:14;;;;;;;;;;;;;;;24.28;52.34;101485.97;5062030;28;19952;-59
2023/07/14 10:31:43;;;;;;;;;;;;;;;24.16;53.38;101494.09;5062973;28;19924;-55
2023/07/14 10:34:17;;;;;;;;;;;;;;;24.10;52.56;101488.94;5061523;28;19916;-54
2023/07/14 10:36:43;;;;;;;;;;;;;;;24.10;54.18;101475.81;5062813;28;19921;-54
2023/07/14 10:39:18;;;;;;;;;;;;;;;24.03;54.91;101472.41;5065102;28;19913;-53
2023/07/14 10:41:47;;;;;;;;;;;;;;;23.98;52.50;101469.88;5064841;28;19917;-52
2023/07/14 10:44:26;;;;;;;;;;;;;;;23.94;55.05;101462.94;5064092;28;20745;-51
2023/07/14 10:46:55;;;;;;;;;;;;;;;23.91;55.28;101460.38;5067023;28;19912;-52
2023/07/14 10:49:34;;;;;;;;;;;;;;;23.89;55.33;101459.50;5067784;28;19924;-53
2023/07/14 10:52:11;;;;;;;;;;;;;;;23.95;54.44;101453.28;5066433;28;19912;-52
2023/07/14 10:54:54;;;;;;;;;;;;;;;23.98;52.57;101454.09;5065542;28;19917;-52
2023/07/14 10:57:19;;;;;;;;;;;;;;;23.76;55.12;101452.75;5063382;28;20304;-53
2023/07/14 10:59:48;;;;;;;;;;;;;;;23.51;55.33;101455.75;5064636;27;19913;-51
2023/07/14 11:02:21;;;;;;;;;;;;;;;23.31;54.67;101454.34;5059859;28;19977;-47
2023/07/14 11:04:49;;;;;;;;;;;;;;;23.33;55.96;101452.53;5066544;28;20409;-49
2023/07/14 11:07:17;;;;;;;;;;;;;;;23.36;55.30;101455.09;5064187;28;19923;-49
2023/07/14 11:09:43;;;;;;;;;;;;;;;23.40;55.11;101451.56;5066398;28;19960;-49
2023/07/14 11:12:13;;;;;;;;;;;;;;;23.51;54.32;101447.88;5065627;28;20019;-47
2023/07/14 11:14:48;;;;;;;;;;;;;;;23.72;55.87;101432.66;5067944;28;19930;-49
2023/07/14 11:17:13;;;;;;;;;;;;;;;23.82;53.97;101421.13;5057918;28;19916;-49
2023/07/14 11:19:45;;;;;;;;;;;;;;;23.76;54.58;101426.50;5062552;28;19917;-51
2023/07/14 11:22:18;;;;;;;;;;;;;;;23.99;54.21;101419.06;5065600;28;20262;-50
2023/07/14 11:24:53;;;;;;;;;;;;;;;24.04;54.21;101414.59;5057786;28;19916;-47
2023/07/14 11:27:27;;;;;;;;;;;;;;;24.02;52.12;101391.84;5064629;28;20426;-48
2023/07/14 11:30:13;;;;;;;;;;;;;;;23.94;53.54;101378.00;5057783;28;19972;-51
2023/07/14 11:33:00;;;;;;;;;;;;;;;24.10;54.46;101374.19;5059790;27;19912;-49
2023/07/14 11:35:28;;;;;;;;;;;;;;;24.32;54.57;101380.72;5059352;28;19924;-48
2023/07/14 11:38:05;;;;;;;;;;;;;;;24.46;52.51;101377.88;5062874;28;19916;-51
2023/07/14 11:40:36;;;;;;;;;;;;;;;24.46;54.52;101379.63;5061715;28;19920;-51
2023/07/14 11:43:02;;;;;;;;;;;;;;;24.61;53.72;101376.66;5062352;28;19916;-50
2023/07/14 11:45:29;;;;;;;;;;;;;;;24.81;52.73;101366.56;5062066;28;20645;-48
2023/07/14 11:47:58;;;;;;;;;;;;;;;25.20;53.03;101365.69;5065468;28;20366;-47
2023/07/14 11:50:34;;;;;;;;;;;;;;;25.56;50.59;101370.03;5047129;28;19921;-48
2023/07/14 11:52:59;;;;;;;;;;;;;;;25.67;49.59;101354.81;5065716;28;19987;-50
2023/07/14 11:55:27;;;;;;;;;;;;;;;25.78;47.12;101359.78;5056439;27;20020;-52
2023/07/14 11:58:05;;;;;;;;;;;;;;;25.90;48.67;101353.31;5061949;28;20290;-50
2023/07/14 12:00:44;;;;;;;;;;;;;;;25.91;47.73;101348.03;5041582;28;20213;-52
2023/07/14 12:03:24;;;;;;;;;;;;;;;25.80;46.28;101347.47;5057413;28;19928;-51
2023/07/14 12:06:09;;;;;;;;;;;;;;;25.86;48.63;101346.44;5058528;28;19917;-49
2023/07/14 12:08:39;;;;;;;;;;;;;;;25.96;48.79;101341.75;5062192;28;20366;-47
2023/07/14 12:11:04;;;;;;;;;;;;;;;25.63;48.74;101337.34;5044225;28;19912;-47
2023/07/14 12:13:34;;;;;;;;;;;;;;;25.45;48.26;101332.56;5064897;28;19917;-49
2023/07/14 12:16:00;;;;;;;;;;;;;;;25.63;49.05;101320.69;5063485;28;19917;-47
2023/07/14 12:18:32;;;;;;;;;;;;;;;25.90;49.34;101321.72;5066368;28;20334;-50
2023/07/14 12:21:16;;;;;;;;;;;;;;;26.08;47.38;101321.19;5064323;28;19916;-51
2023/07/14 12:24:01;;;;;;;;;;;;;;;26.08;46.52;101308.00;5059296;28;19916;-52
2023/07/14 12:26:38;;;;;;;;;;;;;;;25.99;47.88;101310.94;5045072;28;19917;-50
2023/07/14 12:29:12;;;;;;;;;;;;;;;26.01;47.95;101306.47;5066424;28;19912;-48
2023/07/14 12:31:38;;;;;;;;;;;;;;;25.98;46.32;101303.94;5064023;28;19927;-52
2023/07/14 12:34:03;;;;;;;;;;;;;;;26.07;46.51;101301.00;5060315;28;21083;-51
2023/07/14 12:36:29;;;;;;;;;;;;;;;26.21;47.84;101292.72;5058983;28;19924;-50
2023/07/14 12:38:55;;;;;;;;;;;;;;;26.41;48.11;101295.63;5059702;28;20035;-50